Time;durP1;ratioP1;P1;durP2;ratioP2;P2;SDS_P1;SDS_P2;PMS_P1;PMS_P2;Temp;Humidity;BMP_temperature;BMP_pressure;BME280_temperature;BME280_humidity;BME280_pressure;Samples;Min_cycle;Max_cycle;Signal;HPM_P1;HPM_P2
2022/03/09 00:00:55;;;;;;;15.00;6.57;;;;;;;-0.65;48.61;99619.88;5152727;27;39113;-77
2022/03/09 00:03:23;;;;;;;7.93;5.90;;;;;;;-0.67;51.84;99599.06;5153771;27;41661;-77
2022/03/09 00:05:50;;;;;;;8.23;6.63;;;;;;;-0.69;53.87;99600.81;5153681;27;43762;-74
2022/03/09 00:08:18;;;;;;;9.90;6.23;;;;;;;-0.68;52.63;99604.28;5134901;27;41260;-76
2022/03/09 00:10:47;;;;;;;9.53;5.80;;;;;;;-0.68;51.23;99614.69;5153570;27;40912;-73
2022/03/09 00:13:15;;;;;;;10.00;5.47;;;;;;;-0.70;50.29;99627.69;5153472;27;41577;-73
2022/03/09 00:15:44;;;;;;;11.97;5.50;;;;;;;-0.73;49.90;99631.16;5117707;27;41727;-74
2022/03/09 00:18:11;;;;;;;10.97;5.97;;;;;;;-0.76;49.59;99635.53;5148957;27;42263;-75
2022/03/09 00:20:39;;;;;;;10.13;6.33;;;;;;;-0.80;50.37;99626.88;5134028;27;40274;-74
2022/03/09 00:23:06;;;;;;;8.50;5.70;;;;;;;-0.79;49.98;99623.41;5133844;27;42876;-73
2022/03/09 00:25:34;;;;;;;14.80;7.10;;;;;;;-0.80;49.47;99631.22;5134510;27;43527;-74
2022/03/09 00:28:01;;;;;;;8.47;4.80;;;;;;;-0.86;49.43;99631.22;5152719;27;42280;-78
2022/03/09 00:30:29;;;;;;;8.37;4.90;;;;;;;-0.87;50.05;99634.72;5135130;27;39960;-75
2022/03/09 00:32:57;;;;;;;12.00;6.17;;;;;;;-0.87;51.09;99624.31;5134756;27;41764;-76
2022/03/09 00:35:25;;;;;;;11.13;6.03;;;;;;;-0.87;52.03;99621.72;5152975;27;42807;-73
2022/03/09 00:37:53;;;;;;;9.47;6.43;;;;;;;-0.87;52.61;99616.53;5141795;27;42212;-74
2022/03/09 00:40:22;;;;;;;10.73;6.03;;;;;;;-0.89;51.99;99620.88;5173882;27;39707;-72
2022/03/09 00:42:50;;;;;;;5.47;4.73;;;;;;;-0.95;51.31;99618.28;5154998;27;41648;-75
2022/03/09 00:45:17;;;;;;;6.80;4.50;;;;;;;-0.93;51.01;99627.81;5154970;27;41669;-75
2022/03/09 00:47:44;;;;;;;11.80;5.77;;;;;;;-0.98;52.02;99605.28;5173790;27;42265;-75
2022/03/09 00:50:13;;;;;;;11.17;6.90;;;;;;;-1.00;52.15;99607.03;5173939;27;40938;-78
2022/03/09 00:52:41;;;;;;;8.63;5.40;;;;;;;-1.00;51.26;99607.03;5155214;27;41497;-76
2022/03/09 00:55:09;;;;;;;11.90;6.07;;;;;;;-1.02;50.74;99613.97;5137522;27;42818;-76
2022/03/09 00:57:37;;;;;;;10.10;6.27;;;;;;;-1.05;50.45;99613.97;5173700;27;43220;-75
2022/03/09 01:00:06;;;;;;;11.83;6.93;;;;;;;-1.08;55.14;99581.94;5154135;27;39046;-76
2022/03/09 01:02:39;;;;;;;10.20;5.70;;;;;;;-1.08;54.05;99584.53;5172192;27;40840;-73
2022/03/09 01:05:07;;;;;;;7.80;5.50;;;;;;;-1.07;53.43;99595.78;5154690;27;44188;-74
2022/03/09 01:07:36;;;;;;;7.53;5.50;;;;;;;-1.08;52.91;99594.06;5173283;27;43328;-77
2022/03/09 01:10:07;;;;;;;14.20;5.70;;;;;;;-1.10;52.35;99591.47;5173522;27;40861;-73
2022/03/09 01:12:35;;;;;;;9.17;5.43;;;;;;;-1.10;52.56;99593.19;5155522;27;41325;-74
2022/03/09 01:15:04;;;;;;;9.00;5.30;;;;;;;-1.11;52.15;99594.06;5159089;27;42771;-74
2022/03/09 01:17:32;;;;;;;6.10;4.27;;;;;;;-1.13;53.27;99596.69;5152647;27;42366;-73
2022/03/09 01:20:00;;;;;;;6.00;5.03;;;;;;;-1.19;55.15;99578.50;5133924;27;39759;-75
2022/03/09 01:22:27;;;;;;;7.77;5.60;;;;;;;-1.15;55.58;99588.03;5117026;27;40642;-77
2022/03/09 01:24:56;;;;;;;14.17;6.70;;;;;;;-1.17;55.70;99586.31;5116481;27;41881;-75
2022/03/09 01:27:24;;;;;;;13.57;6.80;;;;;;;-1.16;55.82;99581.13;5133881;27;42611;-76
2022/03/09 01:29:51;;;;;;;9.97;5.63;;;;;;;-1.16;55.40;99586.31;5152312;27;41027;-76
2022/03/09 01:32:21;;;;;;;8.43;5.53;;;;;;;-1.24;54.47;99577.69;5152349;27;42406;-77
2022/03/09 01:34:49;;;;;;;10.53;4.97;;;;;;;-1.21;53.62;99598.44;5168970;27;42491;-75
2022/03/09 01:37:17;;;;;;;7.63;4.90;;;;;;;-1.23;53.91;99599.31;5118591;27;41737;-77
2022/03/09 01:39:44;;;;;;;8.37;6.27;;;;;;;-1.25;53.90;99594.16;5154777;27;40367;-77
2022/03/09 01:42:13;;;;;;;9.40;6.07;;;;;;;-1.27;53.44;99590.69;5151929;27;41682;-78
2022/03/09 01:44:41;;;;;;;6.00;4.53;;;;;;;-1.37;52.95;99586.38;5133544;27;43257;-72
2022/03/09 01:47:08;;;;;;;9.03;5.67;;;;;;;-1.46;52.87;99578.59;5133920;27;42657;-72
2022/03/09 01:49:36;;;;;;;8.10;5.23;;;;;;;-1.35;54.43;99594.16;5152370;27;39878;-77
2022/03/09 01:52:05;;;;;;;7.97;5.23;;;;;;;-1.36;53.86;99601.09;5133455;27;41447;-75
2022/03/09 01:54:33;;;;;;;10.57;5.47;;;;;;;-1.51;53.43;99572.56;5132750;27;43764;-76
2022/03/09 01:57:01;;;;;;;8.27;5.07;;;;;;;-1.45;53.03;99588.13;5133554;27;42283;-77
2022/03/09 01:59:30;;;;;;;9.57;4.27;;;;;;;-1.41;53.62;99592.44;5155213;27;40889;-75
2022/03/09 02:01:58;;;;;;;12.90;5.67;;;;;;;-1.41;54.36;99589.84;5119963;27;40681;-76
2022/03/09 02:04:27;;;;;;;11.30;4.97;;;;;;;-1.40;54.54;99586.41;5144552;27;41767;-77
2022/03/09 02:06:54;;;;;;;11.07;6.03;;;;;;;-1.42;53.84;99593.31;5128323;27;41286;-74
2022/03/09 02:12:07;;;;;;;12.63;4.87;;;;;;;-1.50;53.17;99605.47;5136829;27;43474;-75
2022/03/09 02:14:37;;;;;;;9.90;5.13;;;;;;;-1.53;53.69;99602.88;5137003;27;43513;-74
2022/03/09 02:17:06;;;;;;;9.90;5.57;;;;;;;-1.56;54.41;99602.88;5119732;27;41989;-77
2022/03/09 02:19:34;;;;;;;9.33;5.20;;;;;;;-1.59;53.98;99610.66;5136769;27;39148;-77
2022/03/09 02:22:06;;;;;;;11.43;5.87;;;;;;;-1.71;53.52;99598.56;5155334;27;42187;-74
2022/03/09 02:24:35;;;;;;;7.53;4.03;;;;;;;-1.77;53.53;99589.94;5137060;27;41799;-77
2022/03/09 02:27:03;;;;;;;8.10;4.00;;;;;;;-1.72;53.29;99603.75;5136541;27;43241;-76
2022/03/09 02:29:30;;;;;;;7.77;4.60;;;;;;;-1.71;54.12;99600.28;5155656;27;40060;-75
2022/03/09 02:31:59;;;;;;;5.53;3.60;;;;;;;-1.72;53.66;99608.94;5136200;27;41972;-75
2022/03/09 02:34:27;;;;;;;5.23;4.27;;;;;;;-1.76;53.28;99602.06;5155321;27;42940;-74
2022/03/09 02:36:55;;;;;;;7.47;4.77;;;;;;;-1.77;53.40;99605.50;5154967;27;42226;-76
2022/03/09 02:39:22;;;;;;;8.63;5.43;;;;;;;-1.81;53.33;99610.69;5156405;27;39302;-75
2022/03/09 02:41:52;;;;;;;8.97;4.43;;;;;;;-1.85;52.97;99603.78;5156537;27;41496;-78
2022/03/09 02:44:19;;;;;;;6.07;4.57;;;;;;;-1.88;53.06;99598.59;5157171;27;42601;-73
2022/03/09 02:46:47;;;;;;;7.73;4.80;;;;;;;-1.89;52.88;99616.78;5156675;27;43122;-73
2022/03/09 02:49:15;;;;;;;7.93;5.40;;;;;;;-1.96;52.84;99615.88;5139901;27;39706;-78
2022/03/09 02:51:43;;;;;;;6.93;4.00;;;;;;;-1.99;52.72;99615.91;5156834;27;40294;-74
2022/03/09 02:54:11;;;;;;;6.90;4.80;;;;;;;-2.18;52.96;99590.81;5159112;27;42856;-76
2022/03/09 02:56:38;;;;;;;7.57;5.43;;;;;;;-2.05;52.84;99615.91;5156909;27;42173;-74
2022/03/09 02:59:08;;;;;;;7.93;3.77;;;;;;;-2.08;52.69;99615.88;5175988;27;40061;-77
2022/03/09 03:01:36;;;;;;;11.30;6.00;;;;;;;-2.13;52.64;99616.78;5175504;27;41806;-77
2022/03/09 03:04:04;;;;;;;6.53;4.13;;;;;;;-2.17;52.85;99610.72;5156537;27;42728;-75
2022/03/09 03:06:32;;;;;;;9.90;5.03;;;;;;;-2.19;52.92;99610.69;5175623;27;42184;-75
2022/03/09 03:09:00;;;;;;;6.03;3.67;;;;;;;-2.22;52.82;99609.81;5156336;27;40281;-76
2022/03/09 03:11:27;;;;;;;6.43;4.37;;;;;;;-2.25;52.95;99613.31;5125089;27;40733;-76
2022/03/09 03:13:55;;;;;;;8.77;4.00;;;;;;;-2.43;52.67;99586.47;5157041;27;42700;-71
2022/03/09 03:16:24;;;;;;;11.77;6.07;;;;;;;-2.33;52.89;99603.75;5152039;27;43255;-72
2022/03/09 03:18:52;;;;;;;9.73;6.13;;;;;;;-2.29;57.37;99589.94;5144024;27;40935;-74
2022/03/09 03:21:19;;;;;;;7.67;5.23;;;;;;;-2.29;58.68;99576.97;5162014;27;41796;-75
2022/03/09 03:23:47;;;;;;;10.67;5.57;;;;;;;-2.29;58.33;99584.75;5161432;27;42605;-75
2022/03/09 03:26:14;;;;;;;6.50;4.90;;;;;;;-2.30;56.90;99598.59;5161309;27;41442;-73
2022/03/09 03:28:42;;;;;;;8.90;4.43;;;;;;;-2.31;57.53;99594.25;5175383;27;39935;-76
2022/03/09 03:31:09;;;;;;;7.93;4.97;;;;;;;-2.32;56.39;99606.38;5156539;27;41399;-74
2022/03/09 03:33:39;;;;;;;6.23;5.20;;;;;;;-2.80;55.93;99533.69;5155843;27;44409;-74
2022/03/09 03:36:06;;;;;;;9.37;5.43;;;;;;;-2.36;57.57;99603.78;5191345;27;42467;-76
2022/03/09 03:38:34;;;;;;;10.57;6.17;;;;;;;-2.37;58.70;99596.88;5161639;27;41382;-72
2022/03/09 03:41:02;;;;;;;11.80;5.50;;;;;;;-2.38;58.71;99595.13;5154133;27;41936;-71
2022/03/09 03:43:29;;;;;;;9.80;5.27;;;;;;;-2.38;57.86;99606.38;5122291;27;43771;-74
2022/03/09 03:45:57;;;;;;;7.57;5.43;;;;;;;-2.40;57.20;99617.59;5114873;27;41100;-74
2022/03/09 03:48:24;;;;;;;9.47;4.60;;;;;;;-2.61;57.53;99593.38;5115087;27;40302;-71
2022/03/09 03:50:53;;;;;;;9.67;5.73;;;;;;;-2.42;57.65;99619.31;5132159;27;41070;-75
2022/03/09 03:53:21;;;;;;;9.17;6.07;;;;;;;-2.44;57.20;99627.09;5097349;27;44419;-76
2022/03/09 03:55:49;;;;;;;8.83;5.63;;;;;;;-2.45;56.65;99637.47;5149331;27;42254;-73
2022/03/09 03:58:16;;;;;;;7.73;4.77;;;;;;;-2.48;56.21;99640.06;5097086;27;39001;-75
2022/03/09 04:00:45;;;;;;;11.10;5.40;;;;;;;-2.51;55.98;99645.25;5132471;27;41735;-73
2022/03/09 04:03:14;;;;;;;8.53;4.90;;;;;;;-2.57;56.09;99646.94;5132337;27;42677;-74
2022/03/09 04:05:41;;;;;;;7.50;4.73;;;;;;;-2.60;56.76;99652.16;5148895;27;41363;-75
2022/03/09 04:08:10;;;;;;;7.67;5.00;;;;;;;-2.63;56.10;99652.13;5097554;27;40212;-74
2022/03/09 04:10:38;;;;;;;7.97;3.97;;;;;;;-2.66;55.81;99654.72;5133118;27;41887;-73
2022/03/09 04:13:05;;;;;;;7.97;5.57;;;;;;;-2.69;55.72;99661.59;5132506;27;42834;-72
2022/03/09 04:15:33;;;;;;;6.00;3.87;;;;;;;-2.72;56.15;99659.84;5148890;27;42913;-74
2022/03/09 04:18:01;;;;;;;7.27;4.47;;;;;;;-2.74;56.78;99652.97;5114092;27;39117;-76
2022/03/09 04:20:28;;;;;;;9.13;4.80;;;;;;;-2.72;57.04;99661.63;5113987;27;42685;-73
2022/03/09 04:22:56;;;;;;;6.83;5.17;;;;;;;-2.73;56.42;99665.94;5113879;27;42962;-75
2022/03/09 04:25:29;;;;;;;7.47;4.70;;;;;;;-2.81;56.27;99657.25;5114043;27;42088;-71
2022/03/09 04:27:57;;;;;;;6.97;4.50;;;;;;;-2.78;55.99;99672.81;5153763;27;40931;-73
2022/03/09 04:30:24;;;;;;;6.33;3.77;;;;;;;-2.76;56.58;99671.09;5155625;27;42206;-75
2022/03/09 04:32:51;;;;;;;4.80;3.87;;;;;;;-2.75;56.60;99669.38;5137813;27;43151;-74
2022/03/09 04:35:19;;;;;;;10.90;4.87;;;;;;;-2.76;56.30;99665.03;5174277;27;43213;-78
2022/03/09 04:37:50;;;;;;;6.87;3.80;;;;;;;-2.77;56.71;99659.00;5130929;27;39143;-72
2022/03/09 04:40:18;;;;;;;7.00;4.47;;;;;;;-2.76;58.88;99640.00;5153305;27;41692;-71
2022/03/09 04:42:47;;;;;;;9.60;5.00;;;;;;;-2.76;58.02;99652.94;5153024;27;42973;-75
2022/03/09 04:45:15;;;;;;;5.27;3.93;;;;;;;-2.77;57.42;99664.19;5153334;27;42445;-76
2022/03/09 04:47:43;;;;;;;9.13;4.60;;;;;;;-2.79;56.98;99660.72;5153144;27;40284;-73
2022/03/09 04:50:12;;;;;;;6.80;5.03;;;;;;;-2.80;56.63;99664.16;5152829;27;41519;-76
2022/03/09 04:52:40;;;;;;;8.37;3.63;;;;;;;-2.82;56.99;99665.00;5117295;27;42728;-76
2022/03/09 04:55:09;;;;;;;8.67;3.80;;;;;;;-2.81;57.42;99657.25;5116307;27;43454;-74
2022/03/09 04:57:37;;;;;;;11.10;5.20;;;;;;;-2.80;57.22;99665.88;5134309;27;40108;-72
2022/03/09 05:00:09;;;;;;;7.07;4.10;;;;;;;-2.83;57.17;99671.91;5152994;27;42658;-75
2022/03/09 05:02:37;;;;;;;6.13;4.57;;;;;;;-2.84;57.53;99667.59;5117408;27;42752;-77
2022/03/09 05:05:07;;;;;;;7.03;4.53;;;;;;;-2.86;57.17;99658.97;5152676;27;42055;-75
2022/03/09 05:07:34;;;;;;;6.23;4.07;;;;;;;-2.84;57.08;99662.41;5134169;27;39894;-73
2022/03/09 05:10:02;;;;;;;8.00;4.40;;;;;;;-2.85;56.85;99665.03;5134365;27;40656;-77
2022/03/09 05:12:30;;;;;;;5.27;4.10;;;;;;;-2.87;56.82;99657.22;5152537;27;43156;-75
2022/03/09 05:14:57;;;;;;;5.37;3.80;;;;;;;-2.88;57.10;99657.22;5116702;27;41216;-77
2022/03/09 05:17:26;;;;;;;6.67;3.50;;;;;;;-2.87;57.14;99667.59;5116412;27;39454;-76
2022/03/09 05:19:54;;;;;;;5.07;4.23;;;;;;;-2.87;56.88;99669.31;5151857;27;42711;-73
2022/03/09 05:22:21;;;;;;;7.10;3.90;;;;;;;-2.88;56.69;99670.19;5134058;27;43587;-74
2022/03/09 05:24:49;;;;;;;5.07;3.77;;;;;;;-2.90;57.40;99663.25;5134098;27;42896;-75
2022/03/09 05:27:17;;;;;;;11.17;4.03;;;;;;;-2.91;57.91;99660.66;5133647;27;38801;-76
2022/03/09 05:29:44;;;;;;;9.40;5.17;;;;;;;-2.86;59.63;99648.59;5116772;27;41728;-76
2022/03/09 05:32:12;;;;;;;6.53;4.73;;;;;;;-2.86;58.89;99653.78;5144121;27;42737;-76
2022/03/09 05:34:41;;;;;;;8.23;5.33;;;;;;;-2.84;60.85;99659.81;5158329;27;42651;-75
2022/03/09 05:37:09;;;;;;;7.03;4.57;;;;;;;-2.82;61.60;99658.09;5191560;27;40893;-76
2022/03/09 05:39:37;;;;;;;7.17;4.70;;;;;;;-2.81;60.95;99662.41;5156885;27;41708;-71
2022/03/09 05:42:06;;;;;;;9.10;4.90;;;;;;;-2.80;60.02;99669.34;5130026;27;42900;-73
2022/03/09 05:44:33;;;;;;;9.73;4.40;;;;;;;-2.80;59.36;99682.31;5159155;27;42405;-76
2022/03/09 05:47:01;;;;;;;7.70;3.90;;;;;;;-2.81;58.85;99690.94;5147970;27;40068;-76
2022/03/09 05:49:30;;;;;;;7.27;4.23;;;;;;;-2.83;58.52;99695.25;5132917;27;42305;-79
2022/03/09 05:51:59;;;;;;;5.77;4.40;;;;;;;-2.84;58.50;99698.69;5136230;27;42609;-75
2022/03/09 05:54:27;;;;;;;5.87;3.97;;;;;;;-3.01;58.30;99680.50;5136810;27;42337;-75
2022/03/09 05:57:00;;;;;;;7.30;4.00;;;;;;;-2.96;57.94;99688.25;5133593;27;40772;-74
2022/03/09 05:59:28;;;;;;;8.27;4.57;;;;;;;-2.87;57.75;99714.25;5135826;27;40679;-73
2022/03/09 06:01:56;;;;;;;6.97;4.47;;;;;;;-2.86;57.71;99715.97;5135741;27;42581;-74
2022/03/09 06:04:23;;;;;;;8.40;4.43;;;;;;;-2.87;57.47;99716.84;5135992;27;41008;-75
2022/03/09 06:06:51;;;;;;;4.90;4.03;;;;;;;-2.98;57.18;99701.25;5155492;27;40869;-76
2022/03/09 06:09:20;;;;;;;6.43;4.83;;;;;;;-2.88;57.14;99715.09;5155642;27;41805;-73
2022/03/09 06:11:47;;;;;;;5.63;4.00;;;;;;;-2.88;57.02;99725.47;5136575;27;43791;-71
2022/03/09 06:14:15;;;;;;;9.40;5.70;;;;;;;-2.88;57.10;99728.06;5155689;27;43201;-74
2022/03/09 06:16:43;;;;;;;7.77;3.90;;;;;;;-2.89;56.87;99731.50;5155136;27;40928;-75
2022/03/09 06:19:10;;;;;;;8.97;5.57;;;;;;;-2.86;57.50;99726.34;5155533;27;41684;-73
2022/03/09 06:21:38;;;;;;;7.07;4.77;;;;;;;-2.83;57.32;99731.53;5136525;27;43780;-78
2022/03/09 06:24:07;;;;;;;7.47;4.53;;;;;;;-2.80;58.17;99731.56;5136857;27;42273;-76
2022/03/09 06:26:36;;;;;;;8.20;4.60;;;;;;;-2.77;57.96;99734.16;5136892;27;40005;-74
2022/03/09 06:29:04;;;;;;;7.63;5.00;;;;;;;-2.72;57.78;99744.56;5119343;27;42379;-76
2022/03/09 06:31:32;;;;;;;5.87;3.70;;;;;;;-2.66;58.23;99742.84;5137213;27;42818;-77
2022/03/09 06:34:00;;;;;;;11.93;5.07;;;;;;;-2.58;57.86;99743.75;5155350;27;42294;-77
2022/03/09 06:36:27;;;;;;;8.30;4.80;;;;;;;-2.49;58.56;99737.75;5154378;27;40244;-72
2022/03/09 06:38:55;;;;;;;7.43;4.77;;;;;;;-2.42;57.78;99738.63;5136620;27;42779;-76
2022/03/09 06:41:23;;;;;;;5.20;4.17;;;;;;;-2.35;57.38;99745.59;5136427;27;41720;-73
2022/03/09 06:43:52;;;;;;;6.70;4.53;;;;;;;-2.31;57.25;99736.94;5118420;27;41859;-78
2022/03/09 06:46:19;;;;;;;9.70;5.17;;;;;;;-2.22;57.09;99744.72;5121459;27;40998;-74
2022/03/09 06:48:47;;;;;;;7.97;5.17;;;;;;;-2.08;56.94;99750.84;5115326;27;40750;-77
2022/03/09 06:51:15;;;;;;;7.20;4.17;;;;;;;-1.90;57.00;99740.50;5114493;27;41442;-79
2022/03/09 06:53:45;;;;;;;6.90;4.63;;;;;;;-1.67;57.01;99742.25;5117135;27;42762;-73
2022/03/09 06:56:13;;;;;;;10.93;5.77;;;;;;;-1.38;57.28;99743.13;5103896;27;40487;-71
2022/03/09 06:58:41;;;;;;;11.30;6.33;;;;;;;-0.98;57.76;99733.53;5131747;27;41733;-71
2022/03/09 07:01:10;;;;;;;10.80;6.10;;;;;;;-0.15;57.68;99716.75;5165693;27;42626;-73
2022/03/09 07:03:37;;;;;;;11.50;6.80;;;;;;;2.00;53.82;99753.75;5117589;27;42673;-72
2022/03/09 07:06:05;;;;;;;14.13;6.03;;;;;;;4.40;49.16;99769.41;5131144;27;39133;-72
2022/03/09 07:08:33;;;;;;;10.03;6.57;;;;;;;6.66;45.92;99789.50;5153496;27;41545;-75
2022/03/09 07:11:00;;;;;;;9.93;6.47;;;;;;;8.64;42.37;99806.19;5121199;27;43668;-77
2022/03/09 07:13:29;;;;;;;12.03;6.63;;;;;;;10.50;38.89;99835.19;5133108;27;43015;-78
2022/03/09 07:15:57;;;;;;;9.33;6.00;;;;;;;12.45;35.89;99850.06;5124134;27;41506;-78
2022/03/09 07:18:26;;;;;;;9.10;6.30;;;;;;;14.33;32.39;99863.03;5145764;27;42383;-77
2022/03/09 07:20:53;;;;;;;12.50;7.27;;;;;;;15.94;29.75;99851.63;5110927;27;42897;-81
2022/03/09 07:23:21;;;;;;;7.80;6.40;;;;;;;17.68;27.33;99884.59;5133567;27;42614;-75
2022/03/09 07:25:48;;;;;;;12.93;7.67;;;;;;;19.14;26.17;99886.47;5130703;27;39216;-74
2022/03/09 07:28:16;;;;;;;10.60;7.60;;;;;;;20.56;24.05;99899.56;5134141;27;40253;-76
2022/03/09 07:30:43;;;;;;;9.53;8.00;;;;;;;21.80;22.14;99901.75;5117652;27;43380;-80
2022/03/09 07:33:11;;;;;;;10.03;7.70;;;;;;;22.97;21.63;99905.13;5135021;27;43296;-74
2022/03/09 07:35:39;;;;;;;9.87;7.50;;;;;;;22.69;21.10;99905.06;5134912;27;40404;-75
2022/03/09 07:38:10;;;;;;;8.97;8.00;;;;;;;20.43;22.08;99892.53;5153117;27;41762;-77
2022/03/09 07:40:37;;;;;;;8.30;7.17;;;;;;;18.25;23.45;99898.88;5145800;27;43295;-77
2022/03/09 07:43:05;;;;;;;9.07;7.27;;;;;;;17.46;24.40;99869.22;5149298;27;42978;-77
2022/03/09 07:45:33;;;;;;;8.30;6.73;;;;;;;16.35;25.73;99874.59;5152440;27;40755;-78
2022/03/09 07:48:01;;;;;;;9.23;6.53;;;;;;;15.35;26.13;99869.78;5103764;27;40842;-76
2022/03/09 07:50:28;;;;;;;8.03;6.50;;;;;;;14.16;27.32;99860.53;5126967;27;44209;-78
2022/03/09 07:52:57;;;;;;;8.73;6.40;;;;;;;12.92;28.96;99845.63;5134523;27;42312;-78
2022/03/09 07:55:25;;;;;;;8.30;5.90;;;;;;;12.06;30.47;99835.31;5132766;27;40508;-76
2022/03/09 07:57:53;;;;;;;8.83;5.90;;;;;;;11.20;31.46;99832.66;5117490;27;41736;-79
2022/03/09 08:00:20;;;;;;;7.47;5.37;;;;;;;11.06;31.83;99836.00;5115098;27;44744;-75
2022/03/09 08:02:50;;;;;;;9.37;5.23;;;;;;;10.60;32.42;99826.75;5115786;27;41103;-76
2022/03/09 08:05:17;;;;;;;5.63;4.77;;;;;;;9.94;33.74;99815.63;5149200;27;40446;-78
2022/03/09 08:07:45;;;;;;;8.07;5.60;;;;;;;9.45;34.97;99814.25;5133019;27;41684;-77
2022/03/09 08:10:15;;;;;;;6.57;5.13;;;;;;;9.06;35.28;99802.72;5132294;27;41770;-74
2022/03/09 08:12:42;;;;;;;8.90;5.63;;;;;;;8.90;35.92;99807.78;5152132;27;42475;-76
2022/03/09 08:15:11;;;;;;;9.33;5.83;;;;;;;8.71;36.75;99802.34;5133011;27;40725;-75
2022/03/09 08:17:38;;;;;;;11.20;5.97;;;;;;;8.85;37.29;99805.31;5135324;27;41759;-76
2022/03/09 08:20:07;;;;;;;7.40;5.23;;;;;;;9.37;36.84;99797.88;5132162;27;43583;-77
2022/03/09 08:22:35;;;;;;;8.10;5.60;;;;;;;11.11;36.03;99801.31;5115459;27;43303;-76
2022/03/09 08:25:03;;;;;;;7.90;5.17;;;;;;;14.06;32.98;99807.91;5133351;27;38904;-78
2022/03/09 08:27:33;;;;;;;6.27;5.37;;;;;;;17.23;27.84;99834.28;5132493;27;41933;-78
2022/03/09 08:30:00;;;;;;;6.63;5.83;;;;;;;19.71;25.01;99852.13;5132057;27;41829;-74
2022/03/09 08:32:28;;;;;;;8.63;6.60;;;;;;;20.64;24.22;99859.38;5132483;27;42082;-77
2022/03/09 08:35:04;;;;;;;6.83;5.97;;;;;;;22.30;21.85;99868.38;5148807;27;41952;-77
2022/03/09 08:37:32;;;;;;;7.40;5.87;;;;;;;23.57;20.71;99866.66;5130710;27;42063;-76
2022/03/09 08:39:59;;;;;;;7.20;6.17;;;;;;;23.35;20.50;99883.31;5131304;27;42050;-77
2022/03/09 08:42:26;;;;;;;7.27;6.00;;;;;;;22.72;21.01;99880.47;5151559;27;43275;-75
2022/03/09 08:44:56;;;;;;;7.67;5.70;;;;;;;24.13;19.39;99888.94;5169923;27;40733;-74
2022/03/09 08:47:23;;;;;;;6.70;6.00;;;;;;;25.83;17.90;99903.38;5131804;27;41897;-74
2022/03/09 08:49:51;;;;;;;6.50;5.90;;;;;;;27.39;16.67;99868.41;5151607;27;43750;-76
2022/03/09 08:52:19;;;;;;;6.80;6.20;;;;;;;29.29;15.36;99901.78;5131848;27;41098;-75
2022/03/09 08:54:47;;;;;;;6.30;5.80;;;;;;;30.58;13.79;99917.22;5132726;27;39893;-76
2022/03/09 08:57:16;;;;;;;5.88;5.25;;;;;;;31.34;13.25;99924.44;5132293;27;42713;-77
2022/03/09 08:59:45;;;;;;;6.22;5.70;;;;;;;31.46;12.69;99915.63;5127298;27;43096;-77
2022/03/09 09:02:13;;;;;;;6.60;6.00;;;;;;;31.68;12.34;99926.28;5133550;27;41269;-76
2022/03/09 09:04:48;;;;;;;6.70;6.10;;;;;;;30.99;12.57;99920.88;5151545;27;41104;-76
2022/03/09 09:07:15;;;;;;;6.37;5.57;;;;;;;29.43;13.53;99914.53;5150546;27;42126;-76
2022/03/09 09:09:43;;;;;;;6.30;5.70;;;;;;;28.41;14.28;99907.19;5129032;27;43491;-75
2022/03/09 09:12:11;;;;;;;6.67;6.07;;;;;;;29.29;13.57;99907.22;5116135;27;42021;-75
2022/03/09 09:14:45;;;;;;;6.47;5.87;;;;;;;30.31;13.06;99902.44;5133258;27;41117;-74
2022/03/09 09:17:14;;;;;;;6.47;5.88;;;;;;;31.69;12.11;99899.72;5133201;27;42518;-78
2022/03/09 09:19:41;;;;;;;6.30;5.72;;;;;;;32.62;12.07;99906.16;5152136;27;43834;-82
2022/03/09 09:22:09;;;;;;;6.28;5.68;;;;;;;32.61;11.54;99915.44;5150508;27;44461;-83
2022/03/09 09:24:36;;;;;;;6.25;5.65;;;;;;;30.69;12.62;99914.78;5151859;27;40549;-79
2022/03/09 09:27:05;;;;;;;5.70;5.20;;;;;;;29.11;13.60;99896.69;5116588;27;41571;-78
2022/03/09 09:29:32;;;;;;;6.33;5.73;;;;;;;28.65;13.65;99896.03;5117849;27;42772;-81
2022/03/09 09:32:01;;;;;;;5.93;5.33;;;;;;;28.75;14.03;99899.31;5151784;27;42511;-79
2022/03/09 09:34:30;;;;;;;6.43;5.77;;;;;;;29.78;13.65;99892.91;5149446;27;39849;-77
2022/03/09 09:36:59;;;;;;;5.70;5.20;;;;;;;30.56;12.62;99908.34;5132315;27;41869;-80
2022/03/09 09:39:27;;;;;;;6.83;6.03;;;;;;;30.12;13.12;99895.78;5117762;27;42293;-81
2022/03/09 09:41:55;;;;;;;6.03;5.43;;;;;;;29.79;12.80;99894.59;5151144;27;42158;-81
2022/03/09 09:44:24;;;;;;;6.20;5.60;;;;;;;28.14;13.59;99893.06;5149931;27;39921;-79
2022/03/09 09:46:53;;;;;;;6.03;5.47;;;;;;;27.17;13.98;99893.69;5131718;27;41764;-76
2022/03/09 09:49:24;;;;;;;6.03;5.40;;;;;;;26.54;15.03;99891.84;5133115;27;41229;-73
2022/03/09 09:51:54;;;;;;;7.30;6.30;;;;;;;26.96;14.61;99894.28;5148905;27;42314;-73
2022/03/09 09:54:23;;;;;;;6.20;5.40;;;;;;;26.76;14.30;99890.25;5148208;27;40002;-80
2022/03/09 09:56:51;;;;;;;9.93;5.77;;;;;;;26.74;14.46;99871.38;5151890;27;41737;-80
2022/03/09 09:59:18;;;;;;;6.43;5.83;;;;;;;25.85;15.09;99879.59;5131711;27;42303;-80
2022/03/09 10:01:49;;;;;;;7.37;6.10;;;;;;;24.93;16.24;99858.03;5130847;27;42096;-83
2022/03/09 10:04:17;;;;;;;8.63;5.87;;;;;;;24.87;16.04;99862.19;5150853;27;39934;-80
2022/03/09 10:06:44;;;;;;;6.83;5.50;;;;;;;24.48;16.47;99855.56;5151715;27;41751;-78
2022/03/09 10:09:14;;;;;;;7.00;6.00;;;;;;;23.72;17.51;99850.75;5149990;27;41607;-79
2022/03/09 10:11:50;;;;;;;7.33;6.20;;;;;;;23.44;17.16;99851.78;5132563;27;43117;-75
2022/03/09 10:14:19;;;;;;;8.77;6.77;;;;;;;23.23;16.94;99847.53;5132279;27;41664;-76
2022/03/09 10:17:02;;;;;;;6.87;6.17;;;;;;;23.13;17.55;99845.84;5151487;27;41891;-78
2022/03/09 10:19:32;;;;;;;7.37;6.67;;;;;;;23.17;17.11;99853.53;5132030;27;42833;-77
2022/03/09 10:21:59;;;;;;;6.50;5.90;;;;;;;22.53;18.04;99819.28;5136261;27;42397;-79
2022/03/09 10:24:38;;;;;;;6.17;5.57;;;;;;;22.27;19.44;99831.72;5120143;27;38714;-76
2022/03/09 10:27:11;;;;;;;6.50;5.80;;;;;;;23.09;18.61;99839.94;5151533;27;41518;-80
2022/03/09 10:29:38;;;;;;;8.03;6.23;;;;;;;24.66;16.98;99837.38;5150783;27;41355;-76
2022/03/09 10:32:07;;;;;;;7.10;6.27;;;;;;;25.83;16.02;99843.69;5154821;27;42974;-77
2022/03/09 10:34:37;;;;;;;6.60;5.97;;;;;;;26.20;15.71;99839.56;5138305;27;40341;-77
2022/03/09 10:37:06;;;;;;;6.57;5.80;;;;;;;26.88;15.24;99860.81;5153165;27;42649;-77
2022/03/09 10:39:36;;;;;;;6.77;6.00;;;;;;;28.38;14.78;99856.59;5168739;27;44284;-77
2022/03/09 10:42:23;;;;;;;6.43;5.83;;;;;;;29.77;13.60;99866.63;5154847;27;42083;-78
2022/03/09 10:44:52;;;;;;;8.37;6.40;;;;;;;30.68;12.81;99835.66;5136131;27;39288;-77
2022/03/09 10:47:30;;;;;;;6.50;5.90;;;;;;;31.31;12.75;99874.72;5134110;27;42491;-75
2022/03/09 10:50:12;;;;;;;6.40;5.77;;;;;;;31.90;12.64;99863.13;5106875;27;43234;-82
2022/03/09 10:52:48;;;;;;;5.95;5.45;;;;;;;32.97;10.84;99882.88;5118258;27;41223;-76
2022/03/09 10:55:27;;;;;;;8.52;6.50;;;;;;;33.71;10.83;99873.28;5149376;27;39768;-78
2022/03/09 10:58:13;;;;;;;7.13;5.68;;;;;;;35.22;10.54;99866.41;5151909;27;41408;-77
2022/03/09 11:00:45;;;;;;;5.80;5.30;;;;;;;36.33;9.24;99876.94;5138814;27;43711;-78
2022/03/09 11:03:14;;;;;;;5.72;5.25;;;;;;;37.33;8.95;99879.50;5117896;27;41942;-81
2022/03/09 11:05:50;;;;;;;5.07;4.63;;;;;;;38.30;8.40;99873.03;5116125;27;41547;-79
2022/03/09 11:08:18;;;;;;;4.88;4.47;;;;;;;38.89;8.56;99876.16;5153046;27;41694;-74
2022/03/09 11:10:51;;;;;;;5.22;4.82;;;;;;;39.44;7.92;99873.31;5138830;27;44190;-74
2022/03/09 11:13:20;;;;;;;4.93;4.53;;;;;;;39.83;8.06;99866.50;5135444;27;41141;-77
2022/03/09 11:15:54;;;;;;;4.80;4.35;;;;;;;40.09;7.88;99859.28;5135681;27;39025;-80
2022/03/09 11:18:24;;;;;;;5.18;4.78;;;;;;;40.29;7.24;99866.97;5153988;27;42213;-77
2022/03/09 11:20:53;;;;;;;4.43;4.03;;;;;;;39.98;7.32;99871.41;5118052;27;43027;-78
2022/03/09 11:23:21;;;;;;;4.90;4.50;;;;;;;39.18;7.55;99858.28;5114361;27;43596;-78
2022/03/09 11:25:55;;;;;;;4.38;4.07;;;;;;;39.68;7.66;99840.56;5149318;27;39501;-77
2022/03/09 11:28:27;;;;;;;4.68;4.28;;;;;;;40.48;7.24;99853.50;5152710;27;41431;-78
2022/03/09 11:30:56;;;;;;;4.43;4.10;;;;;;;41.39;6.72;99845.66;5149076;27;42741;-80
2022/03/09 11:33:40;;;;;;;5.07;4.68;;;;;;;42.36;6.44;99843.00;5134989;27;42458;-79
2022/03/09 11:36:37;;;;;;;5.30;4.80;;;;;;;43.06;6.31;99844.81;5118437;27;40334;-81
2022/03/09 11:39:21;;;;;;;4.13;3.83;;;;;;;43.21;5.88;99833.63;5153276;27;42740;-76
2022/03/09 11:41:49;;;;;;;4.00;3.70;;;;;;;43.24;5.90;99833.06;5143651;27;43858;-76
2022/03/09 11:44:34;;;;;;;4.45;4.05;;;;;;;42.47;6.08;99812.09;5103462;27;41200;-75